Time;durP1;ratioP1;P1;durP2;ratioP2;P2;SDS_P1;SDS_P2;PMS_P1;PMS_P2;Temp;Humidity;BMP_temperature;BMP_pressure;BME280_temperature;BME280_humidity;BME280_pressure;Samples;Min_cycle;Max_cycle;Signal;HPM_P1;HPM_P2
2021/10/08 00:02:41;;;;;;;1.33;1.23;;;;;;;9.61;74.20;100151.22;5088777;28;41729;-79
2021/10/08 00:05:10;;;;;;;1.40;1.20;;;;;;;9.59;74.80;100146.91;5071605;28;42332;-79
2021/10/08 00:07:38;;;;;;;1.40;1.30;;;;;;;9.62;75.49;100147.66;5089038;28;40057;-79
2021/10/08 00:10:07;;;;;;;2.50;0.83;;;;;;;9.63;75.03;100148.53;5087880;28;40936;-78
2021/10/08 00:12:35;;;;;;;2.13;1.10;;;;;;;9.59;75.23;100141.63;5106184;27;42345;-79
2021/10/08 00:15:03;;;;;;;2.00;1.47;;;;;;;9.61;75.32;100145.94;5071840;28;41198;-79
2021/10/08 00:17:30;;;;;;;0.90;0.87;;;;;;;9.56;75.20;100145.22;5122768;27;41101;-79
2021/10/08 00:20:00;;;;;;;1.27;1.13;;;;;;;9.59;74.94;100153.06;5072336;28;41625;-79
2021/10/08 00:22:27;;;;;;;1.00;0.90;;;;;;;9.57;74.97;100154.91;5105552;28;41623;-79
2021/10/08 00:24:55;;;;;;;2.83;1.10;;;;;;;9.46;74.93;100133.28;5088874;28;42457;-79
2021/10/08 00:27:23;;;;;;;2.07;1.37;;;;;;;9.46;74.96;100135.94;5088899;28;39993;-79
2021/10/08 00:29:51;;;;;;;1.60;1.23;;;;;;;9.55;74.65;100150.56;5071550;28;41623;-80
2021/10/08 00:32:20;;;;;;;1.00;1.00;;;;;;;9.54;74.87;100148.84;5091032;28;42062;-79
2021/10/08 00:34:47;;;;;;;0.97;0.97;;;;;;;9.43;74.79;100135.16;5088463;28;41351;-79
2021/10/08 00:37:17;;;;;;;1.20;1.10;;;;;;;9.42;74.82;100128.16;5082496;28;40808;-80
2021/10/08 00:39:45;;;;;;;1.00;0.90;;;;;;;9.49;74.89;100140.25;5071155;28;41841;-79
2021/10/08 00:42:12;;;;;;;1.30;1.20;;;;;;;9.47;75.05;100139.44;5071921;28;42452;-79
2021/10/08 00:44:40;;;;;;;1.27;1.07;;;;;;;9.49;74.78;100146.41;5054552;28;42370;-79
2021/10/08 00:47:17;;;;;;;1.10;1.00;;;;;;;9.42;74.99;100133.44;5072562;28;40272;-79
2021/10/08 00:49:46;;;;;;;1.17;1.07;;;;;;;9.46;74.69;100146.50;5054122;28;42147;-79
2021/10/08 00:52:13;;;;;;;1.63;0.97;;;;;;;9.41;74.87;100135.22;5054428;28;41968;-79
2021/10/08 00:54:42;;;;;;;1.00;0.90;;;;;;;9.45;74.89;100143.91;5070979;28;41338;-78
2021/10/08 00:57:10;;;;;;;1.17;1.10;;;;;;;9.44;75.19;100137.75;5054033;28;38790;-79
2021/10/08 00:59:38;;;;;;;1.07;0.70;;;;;;;9.44;75.27;100126.31;5054750;28;42050;-78
2021/10/08 01:02:06;;;;;;;1.13;1.03;;;;;;;9.44;75.41;100134.25;5054905;28;43249;-79
2021/10/08 01:04:35;;;;;;;1.07;0.97;;;;;;;9.42;75.52;100129.03;5055003;28;41471;-79
2021/10/08 01:07:03;;;;;;;1.17;1.07;;;;;;;9.37;75.36;100120.41;5054201;28;38711;-79
2021/10/08 01:09:31;;;;;;;1.53;1.30;;;;;;;9.36;75.58;100114.25;5053907;28;41629;-78
2021/10/08 01:12:01;;;;;;;1.70;1.20;;;;;;;9.44;75.31;100121.91;5054371;28;42058;-79
2021/10/08 01:14:33;;;;;;;1.53;1.33;;;;;;;9.07;75.99;100055.47;5055391;28;42444;-79
2021/10/08 01:17:12;;;;;;;1.67;1.27;;;;;;;9.42;75.70;100122.88;5070959;28;40207;-82
2021/10/08 01:19:41;;;;;;;1.17;1.10;;;;;;;9.47;75.53;100126.22;5054739;28;40954;-80
2021/10/08 01:22:10;;;;;;;1.03;1.03;;;;;;;9.45;75.54;100120.97;5070965;28;42902;-80
2021/10/08 01:24:40;;;;;;;1.47;1.37;;;;;;;9.45;75.66;100123.63;5054900;28;42393;-80
2021/10/08 01:27:10;;;;;;;1.73;1.40;;;;;;;9.38;75.75;100106.28;5054442;28;39109;-80
2021/10/08 01:29:49;;;;;;;1.70;1.53;;;;;;;9.42;75.98;100118.44;5054927;28;40771;-79
2021/10/08 01:32:17;;;;;;;2.87;1.10;;;;;;;9.39;76.68;100113.28;5053786;28;41493;-80
2021/10/08 01:34:46;;;;;;;0.97;0.90;;;;;;;9.42;75.93;100115.78;5054242;28;41557;-78
2021/10/08 01:37:17;;;;;;;0.93;0.93;;;;;;;9.42;76.09;100121.09;5076033;28;40996;-79
2021/10/08 01:39:46;;;;;;;1.00;0.90;;;;;;;9.40;77.09;100120.28;5090669;28;41659;-79
2021/10/08 01:42:14;;;;;;;1.53;1.40;;;;;;;9.29;76.62;100104.81;5107213;27;41812;-80
2021/10/08 01:44:43;;;;;;;1.50;1.40;;;;;;;9.29;77.05;100117.16;5074566;28;40930;-80
2021/10/08 01:47:11;;;;;;;1.60;1.40;;;;;;;9.35;76.80;100116.97;5090828;28;40914;-80
2021/10/08 01:49:39;;;;;;;1.50;1.37;;;;;;;9.07;76.77;100069.53;5074326;28;40613;-80
2021/10/08 01:52:07;;;;;;;2.83;1.97;;;;;;;9.37;77.09;100123.06;5056538;28;43100;-81
2021/10/08 01:54:43;;;;;;;1.53;1.20;;;;;;;9.31;77.03;100110.91;5074061;28;41226;-80
2021/10/08 01:57:12;;;;;;;1.17;1.07;;;;;;;9.44;76.86;100131.59;5090491;28;39111;-79
2021/10/08 01:59:40;;;;;;;1.30;1.20;;;;;;;9.25;77.10;100094.44;5124387;27;42849;-78
2021/10/08 02:02:11;;;;;;;1.23;1.13;;;;;;;9.32;76.98;100112.66;5073438;28;42100;-79
2021/10/08 02:04:38;;;;;;;1.40;1.30;;;;;;;9.31;77.28;100104.75;5090967;28;42958;-79
2021/10/08 02:07:07;;;;;;;1.30;1.10;;;;;;;9.33;77.63;100118.78;5073861;28;39181;-80
2021/10/08 02:09:35;;;;;;;2.53;1.53;;;;;;;9.43;78.75;100128.09;5073288;28;40896;-79
2021/10/08 02:12:05;;;;;;;2.33;1.33;;;;;;;9.35;78.13;100119.59;5124586;27;43660;-79
2021/10/08 02:14:34;;;;;;;2.47;1.57;;;;;;;9.31;77.92;100112.69;5073786;28;42120;-80
2021/10/08 02:17:02;;;;;;;1.83;1.40;;;;;;;9.37;78.17;100112.47;5074038;28;38892;-81
2021/10/08 02:19:30;;;;;;;1.93;1.47;;;;;;;9.42;77.71;100123.72;5090372;28;41756;-79
2021/10/08 02:22:03;;;;;;;1.27;1.17;;;;;;;9.28;77.47;100110.16;5090888;28;43676;-79
2021/10/08 02:24:35;;;;;;;2.13;1.60;;;;;;;9.39;77.30;100128.28;5089907;28;42256;-79
2021/10/08 02:27:04;;;;;;;1.50;1.17;;;;;;;9.38;77.12;100132.72;5124657;27;40208;-80
2021/10/08 02:29:33;;;;;;;1.60;1.50;;;;;;;9.31;77.36;100113.56;5074041;28;40446;-79
2021/10/08 02:32:04;;;;;;;1.50;1.40;;;;;;;9.35;77.03;100127.53;5074060;28;41921;-80
2021/10/08 02:34:33;;;;;;;1.10;1.00;;;;;;;9.32;76.80;100127.63;5106832;28;41293;-80
2021/10/08 02:37:01;;;;;;;1.20;1.07;;;;;;;9.30;76.75;100126.84;5086087;28;41889;-79
2021/10/08 02:39:28;;;;;;;3.53;1.10;;;;;;;9.27;76.81;100135.72;5069511;28;41590;-79
2021/10/08 02:41:57;;;;;;;1.20;1.10;;;;;;;9.25;76.71;100126.16;5052979;28;42634;-79
2021/10/08 02:44:25;;;;;;;1.30;1.20;;;;;;;9.23;76.74;100128.84;5052733;28;41077;-79
2021/10/08 02:46:54;;;;;;;2.53;1.30;;;;;;;9.21;76.49;100129.81;5053681;28;38887;-79
2021/10/08 02:49:23;;;;;;;1.73;1.33;;;;;;;9.20;76.70;100133.38;5069751;28;42178;-79
2021/10/08 02:51:51;;;;;;;1.20;1.10;;;;;;;9.18;76.49;100133.44;5052070;28;42885;-80
2021/10/08 02:54:20;;;;;;;2.00;1.10;;;;;;;9.16;76.50;100129.13;5069366;28;42802;-79
2021/10/08 02:56:48;;;;;;;1.47;1.10;;;;;;;9.15;76.28;100136.19;5069616;28;40095;-79
2021/10/08 02:59:16;;;;;;;1.47;1.20;;;;;;;9.13;76.45;100131.91;5068570;28;42113;-79
2021/10/08 03:01:47;;;;;;;1.27;1.10;;;;;;;9.12;76.28;100140.72;5053044;28;43261;-79
2021/10/08 03:04:16;;;;;;;2.13;1.63;;;;;;;9.02;76.40;100130.47;5069068;28;42642;-79
2021/10/08 03:06:43;;;;;;;2.20;1.37;;;;;;;9.04;76.44;100133.06;5069824;28;39941;-80
2021/10/08 03:09:13;;;;;;;2.33;1.43;;;;;;;9.02;76.83;100130.47;5052825;28;41772;-79
2021/10/08 03:11:43;;;;;;;2.37;1.43;;;;;;;9.02;76.54;100131.41;5069250;28;42972;-79
2021/10/08 03:14:11;;;;;;;1.47;1.00;;;;;;;8.92;76.52;100117.66;5069065;28;42381;-80
2021/10/08 03:16:38;;;;;;;1.43;1.23;;;;;;;8.98;76.50;100134.16;5068808;28;40986;-80
2021/10/08 03:19:08;;;;;;;1.70;1.60;;;;;;;8.95;76.46;100131.63;5052900;28;40599;-79
2021/10/08 03:21:35;;;;;;;1.60;1.47;;;;;;;8.93;76.68;100138.72;5052740;28;42643;-79
2021/10/08 03:24:03;;;;;;;1.60;1.50;;;;;;;8.92;76.60;100129.09;5052921;28;41078;-80
2021/10/08 03:26:31;;;;;;;1.77;1.27;;;;;;;8.91;76.47;100135.28;5051994;28;41034;-79
2021/10/08 03:28:59;;;;;;;2.23;1.27;;;;;;;8.83;76.63;100129.41;5052032;28;41036;-79
2021/10/08 03:31:26;;;;;;;2.03;1.50;;;;;;;8.81;76.65;100115.38;5052393;28;41788;-80
2021/10/08 03:33:54;;;;;;;1.23;1.10;;;;;;;8.83;76.26;100123.25;5068397;28;43195;-79
2021/10/08 03:36:27;;;;;;;2.10;1.00;;;;;;;8.83;76.43;100129.41;5069605;28;39867;-79
2021/10/08 03:38:56;;;;;;;1.43;0.90;;;;;;;8.79;76.12;100130.44;5066677;28;42056;-79
2021/10/08 03:41:23;;;;;;;1.00;0.90;;;;;;;8.78;76.29;100128.69;5073415;28;43902;-79
2021/10/08 03:43:54;;;;;;;1.43;1.33;;;;;;;8.78;76.17;100127.88;5053323;28;41067;-81
2021/10/08 03:46:25;;;;;;;1.43;1.10;;;;;;;8.72;76.42;100118.38;5078331;28;40208;-80
2021/10/08 03:51:41;;;;;;;1.27;1.00;;;;;;;8.72;76.69;100126.28;5094668;28;44411;-81
2021/10/08 03:54:09;;;;;;;2.07;1.33;;;;;;;8.71;76.37;100119.28;5094404;28;43459;-82
2021/10/08 03:56:37;;;;;;;2.10;1.13;;;;;;;8.56;76.50;100103.94;5075835;28;39873;-78
2021/10/08 03:59:05;;;;;;;1.60;1.50;;;;;;;8.69;76.68;100131.66;5055265;28;40860;-79
2021/10/08 04:01:32;;;;;;;1.67;1.23;;;;;;;8.65;76.60;100122.16;5073420;28;42939;-79
2021/10/08 04:04:04;;;;;;;1.10;1.00;;;;;;;8.67;76.59;100133.50;5055915;28;41670;-80
2021/10/08 04:06:33;;;;;;;1.20;1.10;;;;;;;8.60;76.56;100127.56;5073158;28;39560;-79
2021/10/08 04:09:06;;;;;;;1.30;1.20;;;;;;;8.63;76.23;100131.91;5068865;28;41991;-79
2021/10/08 04:11:38;;;;;;;3.20;1.87;;;;;;;8.61;76.49;100136.34;5052368;28;41929;-80
2021/10/08 04:14:06;;;;;;;1.80;1.43;;;;;;;8.54;76.46;100126.91;5068282;28;42557;-80
2021/10/08 04:16:36;;;;;;;1.57;1.33;;;;;;;8.47;76.37;100126.25;5068746;28;40928;-79
2021/10/08 04:19:05;;;;;;;2.13;1.47;;;;;;;8.49;76.49;100134.13;5068911;28;42479;-79
2021/10/08 04:21:33;;;;;;;2.43;1.77;;;;;;;8.51;76.43;100132.31;5069194;28;43432;-80
2021/10/08 04:24:04;;;;;;;1.13;1.07;;;;;;;8.38;76.35;100128.34;5072392;28;41378;-80
2021/10/08 04:26:31;;;;;;;1.23;1.10;;;;;;;8.47;76.70;100142.09;5071582;28;39044;-79
2021/10/08 04:29:00;;;;;;;1.47;1.37;;;;;;;8.45;77.00;100137.78;5087995;28;42146;-79
2021/10/08 04:31:30;;;;;;;1.23;1.13;;;;;;;8.43;76.40;100142.25;5094997;27;43178;-79
2021/10/08 04:33:58;;;;;;;2.50;1.70;;;;;;;8.41;76.50;100147.56;5048747;28;42436;-78
2021/10/08 04:36:26;;;;;;;1.30;1.20;;;;;;;8.39;76.34;100151.19;5064414;28;41064;-80
2021/10/08 04:38:57;;;;;;;1.67;1.50;;;;;;;8.36;76.17;100143.38;5035079;28;40637;-79
2021/10/08 04:41:26;;;;;;;2.33;1.50;;;;;;;8.33;76.40;100143.47;5056396;28;41859;-80
2021/10/08 04:43:53;;;;;;;1.97;1.50;;;;;;;8.29;76.44;100138.25;5072029;28;41112;-80
2021/10/08 04:46:21;;;;;;;3.13;1.07;;;;;;;8.03;76.18;100118.91;5068496;28;40010;-79
2021/10/08 04:48:50;;;;;;;1.63;1.27;;;;;;;8.24;76.35;100152.53;5068256;28;42020;-80
2021/10/08 04:51:17;;;;;;;1.17;1.07;;;;;;;8.19;76.37;100147.38;5051312;28;41576;-79
2021/10/08 04:53:45;;;;;;;1.30;1.00;;;;;;;8.17;76.31;100159.75;5049423;28;41156;-79
2021/10/08 04:56:13;;;;;;;0.80;0.80;;;;;;;7.94;76.23;100126.19;5051905;28;39270;-79
2021/10/08 04:58:42;;;;;;;1.23;1.13;;;;;;;8.11;76.18;100157.31;5071999;28;40730;-80
2021/10/08 05:01:10;;;;;;;1.43;1.33;;;;;;;8.11;76.49;100159.09;5087855;28;42064;-79
2021/10/08 05:03:38;;;;;;;1.23;1.00;;;;;;;8.06;76.88;100151.31;5104434;28;42171;-79
2021/10/08 05:06:07;;;;;;;2.17;1.40;;;;;;;7.94;76.86;100135.88;5071284;28;39944;-80
2021/10/08 05:08:41;;;;;;;1.83;1.17;;;;;;;8.02;76.80;100157.63;5071996;28;42015;-81
2021/10/08 05:11:11;;;;;;;1.20;1.00;;;;;;;8.00;76.40;100151.53;5104091;27;42244;-79
2021/10/08 05:13:38;;;;;;;1.13;0.87;;;;;;;7.70;76.30;100099.72;5089210;28;42219;-80
2021/10/08 05:16:08;;;;;;;1.40;1.30;;;;;;;7.97;76.38;100146.34;5050989;28;38841;-80
2021/10/08 05:18:36;;;;;;;1.40;1.30;;;;;;;7.94;76.60;100139.38;5056268;28;42035;-79
2021/10/08 05:21:03;;;;;;;1.70;1.60;;;;;;;7.97;76.69;100134.91;5051551;28;42997;-79
2021/10/08 05:23:33;;;;;;;2.10;1.40;;;;;;;7.88;76.99;100123.75;5051925;28;41344;-80
2021/10/08 05:26:01;;;;;;;1.70;1.60;;;;;;;7.88;77.30;100120.25;5050475;28;40156;-79
2021/10/08 05:28:29;;;;;;;1.67;1.57;;;;;;;7.98;76.78;100141.94;5066509;28;42810;-79
2021/10/08 05:31:00;;;;;;;1.03;0.97;;;;;;;7.99;77.02;100138.38;5084670;28;43930;-80
2021/10/08 05:33:29;;;;;;;1.20;1.10;;;;;;;7.99;77.16;100144.53;5034888;28;42749;-79
2021/10/08 05:35:57;;;;;;;1.30;1.00;;;;;;;7.88;76.99;100126.41;5068128;28;38859;-79
2021/10/08 05:38:25;;;;;;;1.57;1.47;;;;;;;8.00;77.10;100145.38;5104047;28;41834;-79
2021/10/08 05:40:54;;;;;;;2.33;1.50;;;;;;;8.01;77.15;100141.84;5054569;28;42643;-79
2021/10/08 05:43:24;;;;;;;1.67;1.50;;;;;;;8.01;77.38;100142.72;5053925;28;42451;-79
2021/10/08 05:45:56;;;;;;;1.40;1.27;;;;;;;8.03;77.05;100146.16;5053699;28;40064;-81
2021/10/08 05:48:24;;;;;;;1.40;1.30;;;;;;;8.05;77.16;100144.31;5049531;28;40966;-79
2021/10/08 05:50:54;;;;;;;1.50;1.40;;;;;;;7.97;76.94;100129.66;5070380;28;43266;-80
2021/10/08 05:53:22;;;;;;;4.17;2.63;;;;;;;8.08;77.10;100149.50;5071820;28;42624;-81
2021/10/08 05:55:50;;;;;;;2.97;2.00;;;;;;;8.11;77.34;100159.09;5046600;28;41306;-83
2021/10/08 05:58:18;;;;;;;2.97;1.70;;;;;;;8.04;77.12;100137.31;5050568;28;41346;-84
2021/10/08 06:00:46;;;;;;;2.17;1.80;;;;;;;8.09;76.98;100145.94;5070006;28;43152;-84
2021/10/08 06:03:25;;;;;;;3.13;1.37;;;;;;;8.18;76.82;100155.34;5052809;28;41968;-84
2021/10/08 06:05:55;;;;;;;4.80;1.87;;;;;;;8.18;76.92;100145.66;5049069;28;39696;-80
2021/10/08 06:08:24;;;;;;;1.23;1.10;;;;;;;8.21;76.80;100155.25;5083322;28;44023;-83
2021/10/08 06:10:53;;;;;;;2.30;1.63;;;;;;;8.24;76.46;100155.16;5075317;28;42815;-86
2021/10/08 06:13:23;;;;;;;1.77;1.67;;;;;;;8.17;76.44;100135.13;5052987;28;41209;-78
2021/10/08 06:15:51;;;;;;;0.93;0.93;;;;;;;8.30;76.58;100134.69;5069179;28;40064;-80
2021/10/08 06:18:19;;;;;;;2.37;1.70;;;;;;;8.30;76.20;100136.47;5069639;28;40715;-78
2021/10/08 06:20:48;;;;;;;1.97;1.77;;;;;;;8.30;76.32;100123.28;5069272;28;43453;-80
2021/10/08 06:23:40;;;;;;;3.13;1.77;;;;;;;8.49;76.20;100144.69;5052897;28;42224;-85
2021/10/08 06:26:09;;;;;;;2.57;1.97;;;;;;;8.46;76.39;100113.97;5052668;28;38959;-81
2021/10/08 06:28:37;;;;;;;2.33;1.57;;;;;;;8.71;76.38;100140.41;5052972;28;41133;-80
2021/10/08 06:31:06;;;;;;;4.27;2.00;;;;;;;8.81;76.03;100140.94;5050433;28;41613;-85
2021/10/08 06:33:38;;;;;;;2.60;1.87;;;;;;;9.00;76.03;100142.91;5049367;28;43187;-82
2021/10/08 06:36:06;;;;;;;3.13;2.07;;;;;;;9.09;76.19;100136.41;5051910;28;39010;-82
2021/10/08 06:38:36;;;;;;;1.90;1.70;;;;;;;9.25;76.22;100148.16;5051389;28;40819;-81
2021/10/08 06:41:04;;;;;;;2.30;1.67;;;;;;;9.27;76.01;100133.09;5050580;28;41910;-80
2021/10/08 06:43:32;;;;;;;2.87;1.60;;;;;;;9.36;75.83;100126.63;5069148;28;46566;-79
2021/10/08 06:46:05;;;;;;;2.23;1.90;;;;;;;9.51;75.58;100131.34;5032911;28;40470;-80
2021/10/08 06:48:33;;;;;;;3.80;1.80;;;;;;;9.57;75.52;100133.75;5050184;28;41708;-82
2021/10/08 06:51:01;;;;;;;2.63;1.70;;;;;;;9.69;75.44;100138.56;5034950;28;41831;-78
2021/10/08 06:53:31;;;;;;;1.90;1.43;;;;;;;9.82;75.19;100154.81;5047987;28;42317;-79
2021/10/08 06:56:01;;;;;;;1.93;1.60;;;;;;;9.88;74.93;100148.44;5040493;28;40287;-74
2021/10/08 06:58:55;;;;;;;2.33;1.80;;;;;;;9.93;75.08;100142.03;5067614;28;41790;-80
2021/10/08 07:01:24;;;;;;;2.07;1.83;;;;;;;9.92;74.70;100131.50;5048301;28;41888;-81
2021/10/08 07:03:52;;;;;;;2.70;1.73;;;;;;;10.11;74.73;100155.47;5033107;28;41733;-76
2021/10/08 07:06:20;;;;;;;3.90;1.97;;;;;;;10.17;74.65;100158.72;5031859;28;39095;-78
2021/10/08 07:08:51;;;;;;;2.67;1.67;;;;;;;10.24;74.38;100152.31;5065583;28;41089;-79
2021/10/08 07:11:20;;;;;;;1.50;1.27;;;;;;;10.26;74.34;100136.38;5063910;28;43037;-82
2021/10/08 07:13:50;;;;;;;2.23;1.63;;;;;;;10.41;74.55;100155.13;5069553;28;42393;-77
2021/10/08 07:16:19;;;;;;;2.10;1.77;;;;;;;10.48;74.32;100150.44;5052267;28;39175;-79
2021/10/08 07:18:53;;;;;;;2.23;1.70;;;;;;;10.54;74.47;100150.16;5031876;28;41416;-80
2021/10/08 07:21:21;;;;;;;2.93;2.13;;;;;;;10.55;74.19;100151.03;5065913;28;43836;-83
2021/10/08 07:23:49;;;;;;;3.90;2.10;;;;;;;10.65;73.97;100149.72;5051868;28;42620;-75
2021/10/08 07:26:21;;;;;;;2.00;1.80;;;;;;;10.69;74.13;100148.66;5068791;28;40167;-78
2021/10/08 07:28:49;;;;;;;2.30;1.60;;;;;;;10.82;73.82;100149.00;5052005;28;40567;-79
2021/10/08 07:31:17;;;;;;;3.60;2.07;;;;;;;10.89;73.93;100143.38;5050607;28;41573;-77
2021/10/08 07:33:45;;;;;;;3.63;2.13;;;;;;;10.99;73.57;100150.03;5067718;28;42400;-77
2021/10/08 07:36:12;;;;;;;2.73;2.00;;;;;;;10.84;73.63;100116.22;5051625;28;39777;-81
2021/10/08 07:38:40;;;;;;;2.23;1.90;;;;;;;11.12;73.51;100153.00;5085342;28;41809;-82
2021/10/08 07:41:08;;;;;;;1.87;1.70;;;;;;;11.13;73.34;100144.94;5047190;28;43165;-78
2021/10/08 07:43:40;;;;;;;3.13;2.40;;;;;;;11.17;73.51;100150.97;5064749;28;41377;-78
2021/10/08 07:46:09;;;;;;;3.07;2.17;;;;;;;11.18;74.64;100146.53;5047765;28;38882;-80
2021/10/08 07:48:38;;;;;;;3.37;2.50;;;;;;;11.28;75.07;100143.41;5047555;28;41875;-80
2021/10/08 07:51:06;;;;;;;6.03;3.57;;;;;;;11.48;75.08;100150.47;5081238;28;43130;-80
2021/10/08 07:53:34;;;;;;;2.73;2.47;;;;;;;11.59;75.81;100150.84;5047754;28;43481;-83
2021/10/08 07:56:03;;;;;;;3.63;2.13;;;;;;;11.68;75.06;100134.50;5084810;28;38888;-91
2021/10/08 07:58:30;;;;;;;2.93;2.30;;;;;;;11.82;75.05;100140.06;5051493;28;40638;-85
2021/10/08 08:01:14;;;;;;;3.07;2.10;;;;;;;12.04;75.01;100149.66;5069108;28;43062;-86
2021/10/08 08:03:43;;;;;;;3.07;2.33;;;;;;;12.09;74.70;100142.34;5053930;28;20231;-80
2021/10/08 08:06:11;;;;;;;3.73;2.53;;;;;;;12.25;74.36;100143.28;5050248;28;39208;-83
2021/10/08 08:08:38;;;;;;;3.50;2.40;;;;;;;12.29;73.69;100117.44;5052727;28;40913;-80
2021/10/08 08:11:06;;;;;;;2.97;2.40;;;;;;;12.55;73.82;100146.25;5050778;28;43014;-82
2021/10/08 08:13:34;;;;;;;3.07;2.47;;;;;;;12.74;72.69;100156.78;5069263;28;41143;-80
2021/10/08 08:16:01;;;;;;;2.87;2.23;;;;;;;12.91;72.35;100159.47;5068277;28;40948;-81
2021/10/08 08:18:31;;;;;;;3.00;2.20;;;;;;;13.12;71.72;100163.66;5068128;28;42791;-81
2021/10/08 08:20:58;;;;;;;2.53;2.03;;;;;;;13.28;71.01;100153.97;5051353;28;42079;-83
2021/10/08 08:23:34;;;;;;;2.40;2.20;;;;;;;13.47;70.61;100148.56;5051501;28;42276;-84
2021/10/08 08:26:04;;;;;;;2.97;2.60;;;;;;;13.39;70.20;100108.16;5050115;28;39850;-89
2021/10/08 08:31:15;;;;;;;2.67;2.13;;;;;;;14.08;69.48;100144.31;5066995;28;42780;-79
2021/10/08 08:36:48;;;;;;;6.03;2.33;;;;;;;14.35;67.74;100137.41;5032666;28;38942;-84
2021/10/08 08:39:46;;;;;;;2.30;2.10;;;;;;;14.77;68.18;100170.56;5031698;28;41973;-87
2021/10/08 08:42:24;;;;;;;2.07;1.87;;;;;;;14.80;66.50;100128.56;5047360;28;43430;-90
2021/10/08 08:45:25;;;;;;;2.13;1.87;;;;;;;15.25;66.35;100134.72;5038002;28;41236;-88
2021/10/08 08:51:42;;;;;;;3.07;2.77;;;;;;;16.15;63.60;100154.81;5002901;28;41284;-88
2021/10/08 08:54:13;;;;;;;2.17;1.90;;;;;;;16.35;63.50;100134.78;5071942;28;41695;-89
2021/10/08 09:00:00;;;;;;;2.73;1.90;;;;;;;17.74;59.30;100176.16;5051746;28;40525;-77
2021/10/08 09:02:29;;;;;;;2.80;2.10;;;;;;;18.08;59.57;100170.09;5062294;28;41060;-81
2021/10/08 09:05:00;;;;;;;2.37;1.97;;;;;;;18.29;58.47;100173.91;5051461;28;41762;-84
2021/10/08 09:07:34;;;;;;;2.17;1.90;;;;;;;18.33;57.23;100179.03;5068454;28;42224;-81
2021/10/08 09:10:14;;;;;;;4.23;2.57;;;;;;;18.44;57.57;100160.31;5052527;28;40869;-80
2021/10/08 09:12:44;;;;;;;2.67;2.00;;;;;;;18.80;57.72;100175.53;5052143;28;41685;-77
2021/10/08 09:15:15;;;;;;;2.23;2.03;;;;;;;19.58;56.52;100176.63;5058782;28;42570;-81
2021/10/08 09:17:43;;;;;;;3.37;2.13;;;;;;;20.63;53.20;100170.78;5054186;28;41329;-84
2021/10/08 09:20:12;;;;;;;2.47;1.97;;;;;;;20.65;51.65;100190.34;5050715;28;40139;-88
2021/10/08 09:22:54;;;;;;;2.63;2.20;;;;;;;20.32;52.04;100190.41;5034556;28;41785;-86
2021/10/08 09:25:26;;;;;;;6.47;4.53;;;;;;;20.08;53.25;100183.34;5095788;28;42807;-88
2021/10/08 09:27:56;;;;;;;4.03;2.90;;;;;;;20.24;53.17;100177.56;5049172;28;41767;-86
2021/10/08 09:30:27;;;;;;;2.90;2.60;;;;;;;20.13;53.61;100172.22;5050291;28;39104;-85
2021/10/08 09:33:14;;;;;;;3.77;3.23;;;;;;;19.94;52.79;100182.72;5067439;28;41866;-88
2021/10/08 09:35:44;;;;;;;5.73;3.43;;;;;;;19.61;52.16;100181.75;5050151;28;42281;-83
2021/10/08 09:38:16;;;;;;;4.70;3.00;;;;;;;19.61;52.02;100199.72;5049901;28;41551;-84
2021/10/08 09:40:47;;;;;;;4.23;3.07;;;;;;;19.59;52.96;100151.47;5053859;28;39175;-88
2021/10/08 09:43:40;;;;;;;5.00;3.30;;;;;;;19.55;52.92;100130.31;5054126;28;40908;-85
2021/10/08 09:46:21;;;;;;;3.43;2.97;;;;;;;19.82;53.17;100164.88;5053502;28;41828;-83
2021/10/08 09:48:57;;;;;;;5.13;3.73;;;;;;;19.75;52.38;100185.19;5071152;28;41093;-86
2021/10/08 09:51:31;;;;;;;3.73;2.93;;;;;;;19.81;52.75;100165.88;5053838;28;39272;-89
2021/10/08 09:54:01;;;;;;;3.57;2.63;;;;;;;19.68;53.26;100123.84;5054416;28;41747;-86
2021/10/08 09:56:37;;;;;;;3.30;2.80;;;;;;;20.04;52.93;100172.94;5040122;28;41402;-79
2021/10/08 09:59:10;;;;;;;3.67;2.90;;;;;;;19.77;52.12;100121.41;5051346;28;41768;-89
2021/10/08 10:01:39;;;;;;;4.47;3.00;;;;;;;20.33;51.44;100174.13;5047930;28;40316;-88
2021/10/08 10:04:12;;;;;;;3.27;2.87;;;;;;;20.78;51.47;100161.41;5054280;28;40942;-85
2021/10/08 10:06:44;;;;;;;3.97;2.90;;;;;;;20.95;49.37;100159.13;5043424;28;43054;-86
2021/10/08 10:09:16;;;;;;;4.70;3.40;;;;;;;21.88;48.94;100187.81;5050268;28;41588;-86
2021/10/08 10:11:46;;;;;;;3.73;3.00;;;;;;;22.40;46.58;100190.44;5033891;28;39992;-85
2021/10/08 10:14:15;;;;;;;5.17;3.70;;;;;;;22.68;46.31;100176.13;5084126;28;42875;-85
2021/10/08 10:16:46;;;;;;;7.77;3.97;;;;;;;22.83;45.94;100190.97;5050691;28;40809;-89
2021/10/08 10:19:17;;;;;;;4.97;3.57;;;;;;;22.71;45.96;100153.41;5051951;28;43242;-87
2021/10/08 10:21:45;;;;;;;4.53;3.60;;;;;;;22.87;44.89;100202.34;5053234;28;39925;-82
2021/10/08 10:24:24;;;;;;;3.73;3.10;;;;;;;23.25;45.38;100209.56;5102654;28;40741;-80
2021/10/08 10:26:54;;;;;;;4.53;3.80;;;;;;;23.12;43.84;100211.75;5070047;28;41930;-82
2021/10/08 10:29:23;;;;;;;4.50;3.07;;;;;;;23.37;43.98;100207.59;5069428;28;41199;-84
2021/10/08 10:32:00;;;;;;;3.87;3.13;;;;;;;23.60;43.56;100200.88;5069797;28;38927;-83
2021/10/08 10:34:34;;;;;;;5.67;3.80;;;;;;;23.95;43.56;100209.16;5072129;28;42090;-87
2021/10/08 10:37:03;;;;;;;4.20;3.33;;;;;;;24.07;42.16;100222.50;5050187;28;42632;-86
2021/10/08 10:42:44;;;;;;;5.07;3.83;;;;;;;24.73;40.76;100197.94;5050935;28;39305;-86
2021/10/08 10:45:18;;;;;;;7.20;3.60;;;;;;;26.19;38.97;100201.78;5052194;28;42120;-87
2021/10/08 10:48:11;;;;;;;5.00;3.73;;;;;;;26.18;38.90;100225.38;5052553;28;42007;-88
2021/10/08 10:50:49;;;;;;;5.30;3.50;;;;;;;27.61;36.41;100236.94;5071158;28;41526;-84
2021/10/08 10:56:42;;;;;;;4.03;3.63;;;;;;;26.08;36.87;100239.09;5104299;28;42113;-89
2021/10/08 10:59:28;;;;;;;4.17;3.53;;;;;;;24.95;39.19;100211.06;5070802;28;43092;-81
2021/10/08 11:02:33;;;;;;;4.20;3.40;;;;;;;24.80;40.00;100213.41;5072257;28;42411;-90
2021/10/08 11:05:18;;;;;;;4.67;2.93;;;;;;;24.59;39.80;100183.91;5067790;28;40289;-84
2021/10/08 11:08:08;;;;;;;4.17;3.07;;;;;;;24.51;40.50;100208.19;5048097;28;40795;-83
2021/10/08 11:10:37;;;;;;;3.93;3.07;;;;;;;24.51;41.00;100189.22;5034898;28;42837;-83
2021/10/08 11:13:28;;;;;;;3.67;2.83;;;;;;;25.05;39.49;100206.41;5027791;28;42603;-82
2021/10/08 11:16:00;;;;;;;5.30;3.40;;;;;;;27.40;37.70;100212.09;5035287;28;41158;-80
2021/10/08 11:18:45;;;;;;;3.53;3.17;;;;;;;26.96;35.82;100225.16;5024876;28;40620;-81
2021/10/08 11:21:37;;;;;;;4.40;3.30;;;;;;;26.19;37.32;100218.06;5019308;28;43444;-83
2021/10/08 11:24:16;;;;;;;3.90;2.97;;;;;;;25.87;37.31;100214.16;5006272;28;42201;-83
2021/10/08 11:26:51;;;;;;;4.80;3.33;;;;;;;25.50;37.41;100199.97;5005136;28;39184;-87
2021/10/08 11:29:19;;;;;;;4.23;3.50;;;;;;;25.07;37.86;100204.41;5004195;28;40747;-85
2021/10/08 11:31:59;;;;;;;4.47;3.27;;;;;;;24.73;39.57;100190.63;5045192;28;41740;-85
2021/10/08 11:34:27;;;;;;;2.70;2.40;;;;;;;24.60;40.15;100158.50;5180047;22;42202;-81
2021/10/08 11:36:58;;;;;;;3.50;2.83;;;;;;;24.65;39.36;100188.72;5074267;28;41184;-83
2021/10/08 11:39:27;;;;;;;3.67;2.47;;;;;;;25.73;38.05;100193.91;5071540;28;41558;-81
2021/10/08 11:42:00;;;;;;;3.53;2.87;;;;;;;25.55;38.16;100195.78;5074019;28;43146;-80
2021/10/08 11:44:30;;;;;;;4.10;3.23;;;;;;;25.35;38.59;100176.13;5063132;28;43925;-77
2021/10/08 11:47:43;;;;;;;3.67;3.10;;;;;;;25.28;37.88;100185.94;5059920;28;39864;-83
2021/10/08 12:04:36;;;;;;;4.57;3.13;;;;;;;27.94;33.95;100185.16;5067250;28;42834;-85
2021/10/08 12:21:56;;;;;;;2.90;2.70;;;;;;;34.46;23.01;100205.22;5088511;27;42943;-87
2021/10/08 12:24:24;;;;;;;3.27;2.97;;;;;;;35.77;22.07;100227.50;5053943;28;42819;-91
2021/10/08 12:26:54;;;;;;;3.47;3.00;;;;;;;36.55;22.13;100221.34;5095169;28;41079;-83
2021/10/08 12:29:22;;;;;;;3.60;3.30;;;;;;;35.02;22.94;100215.53;5060396;28;40736;-86
2021/10/08 12:31:56;;;;;;;3.63;3.33;;;;;;;35.03;22.77;100197.94;5062883;28;41798;-82
2021/10/08 12:34:35;;;;;;;3.93;3.53;;;;;;;36.16;20.58;100203.34;5050327;28;41511;-78
2021/10/08 12:37:05;;;;;;;3.37;3.07;;;;;;;37.15;21.38;100213.94;5061815;28;39078;-83
2021/10/08 12:39:35;;;;;;;3.40;3.10;;;;;;;36.28;20.99;100209.78;5059488;28;41155;-80